Terminal Aerodrome Forecast
Issued by NWS

Home | Current Version | Previous Version | Text Only | Print | Product List | Glossary On
Versions: 1 2 3 4 5 6 7 8 9 10 11 12 13 14 15 16 17 18 19 20 21 22 23 24 25 26 27 28 29 30 31 32 33 34
000
FTUS43 KDDC 231749 AAA
TAFHYS
TAF AMD
KHYS 231749Z 2318/2418 20020G23KT P6SM SCT100 SCT200
     FM232100 21017G27KT P6SM VCSH BKN050 BKN100
     FM240000 27010KT P6SM SCT100 SCT200
     FM240900 30009KT P6SM OVC050
     FM241500 34010G20KT P6SM BKN050=

USA.gov is the U.S. government's official web portal to all federal, state and local government web resources and services.